首页
METAR-TAF:

METAR-TAF

机场 :

Tekamah Municipal Airport

Tekamah, 內布拉斯加州, 美国

纬度: 41-46-01N, 经度: 096-10-40W, 海拔: 313米

当前天气观测

该预报发布于1小时和3分钟前的03:54 UTC
风速9节,风向
温度 30°C
湿度 66%
气压 1004 hPa
能見度: 16.1公里
天空无云

METAR: KTQE 250354Z AUTO 18009KT 10SM CLR 30/23 A2965 RMK AO2 SLP025 T03000233

时间: 23:57 (04:57 UTC)


TAF: 丢失

超过4000个机场的气象观测和天气预报(METAR&TAF报告)。

可查询的气象台以黄色和红色小点在地图上表示。

将鼠标移到小点上方,可查看气象台名称。

然后点击查看天气观测和预报。